sensor_id;sensor_type;location;lat;lon;timestamp;temperature;humidity
44643;DHT22;33930;-34.276;150.954;2022-07-10T00:00:55;13.40;99.90
44643;DHT22;33930;-34.276;150.954;2022-07-10T00:03:22;13.50;99.90
44643;DHT22;33930;-34.276;150.954;2022-07-10T00:05:50;13.60;99.90
44643;DHT22;33930;-34.276;150.954;2022-07-10T00:08:17;13.60;99.90
44643;DHT22;33930;-34.276;150.954;2022-07-10T00:10:44;13.70;99.90
44643;DHT22;33930;-34.276;150.954;2022-07-10T00:13:12;13.70;99.90
44643;DHT22;33930;-34.276;150.954;2022-07-10T00:15:39;13.80;99.90
44643;DHT22;33930;-34.276;150.954;2022-07-10T00:18:07;13.80;99.90
44643;DHT22;33930;-34.276;150.954;2022-07-10T00:20:34;13.70;99.90
44643;DHT22;33930;-34.276;150.954;2022-07-10T00:23:02;13.70;99.90
44643;DHT22;33930;-34.276;150.954;2022-07-10T00:25:29;13.70;99.90
44643;DHT22;33930;-34.276;150.954;2022-07-10T00:27:57;13.50;99.90
44643;DHT22;33930;-34.276;150.954;2022-07-10T00:30:24;13.50;99.90
44643;DHT22;33930;-34.276;150.954;2022-07-10T00:32:51;13.50;99.90
44643;DHT22;33930;-34.276;150.954;2022-07-10T00:35:19;13.50;99.90
44643;DHT22;33930;-34.276;150.954;2022-07-10T00:37:46;13.50;99.90
44643;DHT22;33930;-34.276;150.954;2022-07-10T00:40:13;13.40;99.90
44643;DHT22;33930;-34.276;150.954;2022-07-10T00:42:41;13.40;99.90
44643;DHT22;33930;-34.276;150.954;2022-07-10T00:45:08;13.50;99.90
44643;DHT22;33930;-34.276;150.954;2022-07-10T00:47:36;13.50;99.90
44643;DHT22;33930;-34.276;150.954;2022-07-10T00:50:04;13.50;99.90
44643;DHT22;33930;-34.276;150.954;2022-07-10T00:52:35;13.50;99.90
44643;DHT22;33930;-34.276;150.954;2022-07-10T00:55:06;13.50;99.90
44643;DHT22;33930;-34.276;150.954;2022-07-10T00:57:36;13.60;99.90
44643;DHT22;33930;-34.276;150.954;2022-07-10T01:00:05;13.70;99.90
44643;DHT22;33930;-34.276;150.954;2022-07-10T01:02:32;13.80;99.90
44643;DHT22;33930;-34.276;150.954;2022-07-10T01:05:00;13.90;99.90
44643;DHT22;33930;-34.276;150.954;2022-07-10T01:07:27;14.00;99.90
44643;DHT22;33930;-34.276;150.954;2022-07-10T01:09:56;14.30;99.90
44643;DHT22;33930;-34.276;150.954;2022-07-10T01:12:25;14.50;99.90
44643;DHT22;33930;-34.276;150.954;2022-07-10T01:14:54;14.60;99.90
44643;DHT22;33930;-34.276;150.954;2022-07-10T01:17:22;14.70;99.90
44643;DHT22;33930;-34.276;150.954;2022-07-10T01:19:51;15.00;99.90
44643;DHT22;33930;-34.276;150.954;2022-07-10T01:22:18;15.10;99.90
44643;DHT22;33930;-34.276;150.954;2022-07-10T01:24:45;15.20;99.90
44643;DHT22;33930;-34.276;150.954;2022-07-10T01:27:13;15.20;99.90
44643;DHT22;33930;-34.276;150.954;2022-07-10T01:29:40;15.30;99.90
44643;DHT22;33930;-34.276;150.954;2022-07-10T01:32:08;15.40;99.90
44643;DHT22;33930;-34.276;150.954;2022-07-10T01:34:36;15.40;99.90
44643;DHT22;33930;-34.276;150.954;2022-07-10T01:37:03;15.50;99.90
44643;DHT22;33930;-34.276;150.954;2022-07-10T01:39:30;15.50;99.90
44643;DHT22;33930;-34.276;150.954;2022-07-10T01:41:58;15.50;99.90
44643;DHT22;33930;-34.276;150.954;2022-07-10T01:44:25;15.50;99.90
44643;DHT22;33930;-34.276;150.954;2022-07-10T01:46:52;15.60;99.90
44643;DHT22;33930;-34.276;150.954;2022-07-10T01:49:20;15.60;99.90
44643;DHT22;33930;-34.276;150.954;2022-07-10T01:51:47;15.70;99.90
44643;DHT22;33930;-34.276;150.954;2022-07-10T01:54:15;15.80;99.90
44643;DHT22;33930;-34.276;150.954;2022-07-10T01:56:42;15.80;99.90
44643;DHT22;33930;-34.276;150.954;2022-07-10T01:59:09;15.90;99.90
44643;DHT22;33930;-34.276;150.954;2022-07-10T02:01:37;15.90;99.90
44643;DHT22;33930;-34.276;150.954;2022-07-10T02:04:04;16.00;99.90
44643;DHT22;33930;-34.276;150.954;2022-07-10T02:06:49;16.00;99.90
44643;DHT22;33930;-34.276;150.954;2022-07-10T02:09:17;16.00;99.90
44643;DHT22;33930;-34.276;150.954;2022-07-10T02:11:45;16.00;99.90
44643;DHT22;33930;-34.276;150.954;2022-07-10T02:14:12;16.10;99.90
44643;DHT22;33930;-34.276;150.954;2022-07-10T02:16:40;16.10;99.90
44643;DHT22;33930;-34.276;150.954;2022-07-10T02:19:07;16.10;99.90
44643;DHT22;33930;-34.276;150.954;2022-07-10T02:21:34;16.10;99.90
44643;DHT22;33930;-34.276;150.954;2022-07-10T02:24:02;16.00;99.90
44643;DHT22;33930;-34.276;150.954;2022-07-10T02:26:29;15.90;99.90
44643;DHT22;33930;-34.276;150.954;2022-07-10T02:28:56;15.80;99.90
44643;DHT22;33930;-34.276;150.954;2022-07-10T02:31:24;15.60;99.90
44643;DHT22;33930;-34.276;150.954;2022-07-10T02:33:51;15.60;99.90
44643;DHT22;33930;-34.276;150.954;2022-07-10T02:36:18;15.60;99.90
44643;DHT22;33930;-34.276;150.954;2022-07-10T02:38:46;15.60;99.90
44643;DHT22;33930;-34.276;150.954;2022-07-10T02:41:13;15.50;99.90
44643;DHT22;33930;-34.276;150.954;2022-07-10T02:43:41;15.50;99.90
44643;DHT22;33930;-34.276;150.954;2022-07-10T02:46:08;15.50;99.90
44643;DHT22;33930;-34.276;150.954;2022-07-10T02:48:36;15.40;99.90
44643;DHT22;33930;-34.276;150.954;2022-07-10T02:51:03;15.40;99.90
44643;DHT22;33930;-34.276;150.954;2022-07-10T02:53:30;15.30;99.90
44643;DHT22;33930;-34.276;150.954;2022-07-10T02:55:58;15.20;99.90
44643;DHT22;33930;-34.276;150.954;2022-07-10T02:58:25;15.10;99.90
44643;DHT22;33930;-34.276;150.954;2022-07-10T03:00:53;15.00;99.90
44643;DHT22;33930;-34.276;150.954;2022-07-10T03:03:20;15.00;99.90
44643;DHT22;33930;-34.276;150.954;2022-07-10T03:05:48;14.90;99.90
44643;DHT22;33930;-34.276;150.954;2022-07-10T03:08:15;14.90;99.90
44643;DHT22;33930;-34.276;150.954;2022-07-10T03:10:43;14.90;99.90
44643;DHT22;33930;-34.276;150.954;2022-07-10T03:13:10;14.90;99.90
44643;DHT22;33930;-34.276;150.954;2022-07-10T03:15:37;15.00;99.90
44643;DHT22;33930;-34.276;150.954;2022-07-10T03:18:05;15.10;99.90
44643;DHT22;33930;-34.276;150.954;2022-07-10T03:20:32;15.20;99.90
44643;DHT22;33930;-34.276;150.954;2022-07-10T03:23:00;15.30;99.90
44643;DHT22;33930;-34.276;150.954;2022-07-10T03:25:27;15.20;99.90
44643;DHT22;33930;-34.276;150.954;2022-07-10T03:27:54;15.20;99.90
44643;DHT22;33930;-34.276;150.954;2022-07-10T03:30:22;15.10;99.90
44643;DHT22;33930;-34.276;150.954;2022-07-10T03:32:50;15.10;99.90
44643;DHT22;33930;-34.276;150.954;2022-07-10T03:35:20;15.10;99.90
44643;DHT22;33930;-34.276;150.954;2022-07-10T03:37:47;15.10;99.90
44643;DHT22;33930;-34.276;150.954;2022-07-10T03:40:15;15.10;99.90
44643;DHT22;33930;-34.276;150.954;2022-07-10T03:42:42;15.10;99.90
44643;DHT22;33930;-34.276;150.954;2022-07-10T03:45:10;15.30;99.90
44643;DHT22;33930;-34.276;150.954;2022-07-10T03:47:37;15.10;99.90
44643;DHT22;33930;-34.276;150.954;2022-07-10T03:50:05;14.90;99.90
44643;DHT22;33930;-34.276;150.954;2022-07-10T03:52:33;14.90;99.90
44643;DHT22;33930;-34.276;150.954;2022-07-10T03:55:00;14.80;99.90
44643;DHT22;33930;-34.276;150.954;2022-07-10T03:57:27;14.80;99.90
44643;DHT22;33930;-34.276;150.954;2022-07-10T04:00:13;14.70;99.90
44643;DHT22;33930;-34.276;150.954;2022-07-10T04:02:41;14.70;99.90
44643;DHT22;33930;-34.276;150.954;2022-07-10T04:05:09;14.70;99.90
44643;DHT22;33930;-34.276;150.954;2022-07-10T04:07:37;14.70;99.90
44643;DHT22;33930;-34.276;150.954;2022-07-10T04:10:04;14.60;99.90
44643;DHT22;33930;-34.276;150.954;2022-07-10T04:12:32;14.60;99.90
44643;DHT22;33930;-34.276;150.954;2022-07-10T04:14:59;14.60;99.90
44643;DHT22;33930;-34.276;150.954;2022-07-10T04:17:26;14.50;99.90
44643;DHT22;33930;-34.276;150.954;2022-07-10T04:19:54;14.40;99.90
44643;DHT22;33930;-34.276;150.954;2022-07-10T04:22:21;14.40;99.90
44643;DHT22;33930;-34.276;150.954;2022-07-10T04:24:49;14.30;99.90
44643;DHT22;33930;-34.276;150.954;2022-07-10T04:27:17;14.30;99.90
44643;DHT22;33930;-34.276;150.954;2022-07-10T04:29:44;14.30;99.90
44643;DHT22;33930;-34.276;150.954;2022-07-10T04:32:12;14.20;99.90
44643;DHT22;33930;-34.276;150.954;2022-07-10T04:34:44;14.20;99.90
44643;DHT22;33930;-34.276;150.954;2022-07-10T04:37:11;14.20;99.90
44643;DHT22;33930;-34.276;150.954;2022-07-10T04:39:39;14.10;99.90
44643;DHT22;33930;-34.276;150.954;2022-07-10T04:42:07;14.00;99.90
44643;DHT22;33930;-34.276;150.954;2022-07-10T04:44:35;14.00;99.90
44643;DHT22;33930;-34.276;150.954;2022-07-10T04:47:03;14.00;99.90
44643;DHT22;33930;-34.276;150.954;2022-07-10T04:49:32;14.00;99.90
44643;DHT22;33930;-34.276;150.954;2022-07-10T04:52:00;14.00;99.90
44643;DHT22;33930;-34.276;150.954;2022-07-10T04:54:27;14.00;99.90
44643;DHT22;33930;-34.276;150.954;2022-07-10T04:56:55;14.00;99.90
44643;DHT22;33930;-34.276;150.954;2022-07-10T04:59:22;14.00;99.90
44643;DHT22;33930;-34.276;150.954;2022-07-10T05:01:49;14.10;99.90
44643;DHT22;33930;-34.276;150.954;2022-07-10T05:04:17;14.20;99.90
44643;DHT22;33930;-34.276;150.954;2022-07-10T05:06:44;14.20;99.90
44643;DHT22;33930;-34.276;150.954;2022-07-10T05:09:11;14.20;99.90
44643;DHT22;33930;-34.276;150.954;2022-07-10T05:11:39;14.20;99.90
44643;DHT22;33930;-34.276;150.954;2022-07-10T05:14:06;14.20;99.90
44643;DHT22;33930;-34.276;150.954;2022-07-10T05:16:33;14.20;99.90
44643;DHT22;33930;-34.276;150.954;2022-07-10T05:19:01;14.20;99.90
44643;DHT22;33930;-34.276;150.954;2022-07-10T05:21:28;14.20;99.90
44643;DHT22;33930;-34.276;150.954;2022-07-10T05:23:56;14.10;99.90
44643;DHT22;33930;-34.276;150.954;2022-07-10T05:26:23;14.00;99.90
44643;DHT22;33930;-34.276;150.954;2022-07-10T05:28:50;14.00;99.90
44643;DHT22;33930;-34.276;150.954;2022-07-10T05:31:17;13.90;99.90
44643;DHT22;33930;-34.276;150.954;2022-07-10T05:33:45;13.90;99.90
44643;DHT22;33930;-34.276;150.954;2022-07-10T05:36:12;13.80;99.90
44643;DHT22;33930;-34.276;150.954;2022-07-10T05:38:39;13.80;99.90
44643;DHT22;33930;-34.276;150.954;2022-07-10T05:41:07;13.90;99.90
44643;DHT22;33930;-34.276;150.954;2022-07-10T05:43:35;13.90;99.90
44643;DHT22;33930;-34.276;150.954;2022-07-10T05:46:02;13.80;99.90
44643;DHT22;33930;-34.276;150.954;2022-07-10T05:48:29;13.80;99.90
44643;DHT22;33930;-34.276;150.954;2022-07-10T05:50:56;13.80;99.90
44643;DHT22;33930;-34.276;150.954;2022-07-10T05:53:24;13.70;99.90
44643;DHT22;33930;-34.276;150.954;2022-07-10T05:55:51;13.70;99.90
44643;DHT22;33930;-34.276;150.954;2022-07-10T05:58:19;13.80;99.90
44643;DHT22;33930;-34.276;150.954;2022-07-10T06:00:46;13.80;99.90
44643;DHT22;33930;-34.276;150.954;2022-07-10T06:03:15;13.80;99.90
44643;DHT22;33930;-34.276;150.954;2022-07-10T06:05:43;13.80;99.90
44643;DHT22;33930;-34.276;150.954;2022-07-10T06:08:11;13.60;99.90
44643;DHT22;33930;-34.276;150.954;2022-07-10T06:10:39;13.50;99.90
44643;DHT22;33930;-34.276;150.954;2022-07-10T06:13:11;13.50;99.90
44643;DHT22;33930;-34.276;150.954;2022-07-10T06:15:38;13.50;99.90
44643;DHT22;33930;-34.276;150.954;2022-07-10T06:18:06;13.50;99.90
44643;DHT22;33930;-34.276;150.954;2022-07-10T06:20:33;13.50;99.90
44643;DHT22;33930;-34.276;150.954;2022-07-10T06:23:00;13.50;99.90
44643;DHT22;33930;-34.276;150.954;2022-07-10T06:25:28;13.50;99.90
44643;DHT22;33930;-34.276;150.954;2022-07-10T06:27:55;13.50;99.90
44643;DHT22;33930;-34.276;150.954;2022-07-10T06:30:22;13.50;99.90
44643;DHT22;33930;-34.276;150.954;2022-07-10T06:32:50;13.50;99.90
44643;DHT22;33930;-34.276;150.954;2022-07-10T06:35:17;13.50;99.90
44643;DHT22;33930;-34.276;150.954;2022-07-10T06:37:44;13.40;99.90
44643;DHT22;33930;-34.276;150.954;2022-07-10T06:40:15;13.40;99.90
44643;DHT22;33930;-34.276;150.954;2022-07-10T06:42:43;13.40;99.90
44643;DHT22;33930;-34.276;150.954;2022-07-10T06:45:11;13.30;99.90
44643;DHT22;33930;-34.276;150.954;2022-07-10T06:47:38;13.30;99.90
44643;DHT22;33930;-34.276;150.954;2022-07-10T06:50:32;13.30;99.90
44643;DHT22;33930;-34.276;150.954;2022-07-10T06:53:03;13.30;99.90
44643;DHT22;33930;-34.276;150.954;2022-07-10T06:55:30;13.30;99.90
44643;DHT22;33930;-34.276;150.954;2022-07-10T06:57:58;13.30;99.90
44643;DHT22;33930;-34.276;150.954;2022-07-10T07:00:26;13.20;99.90
44643;DHT22;33930;-34.276;150.954;2022-07-10T07:02:54;13.30;99.90
44643;DHT22;33930;-34.276;150.954;2022-07-10T07:05:22;13.30;99.90
44643;DHT22;33930;-34.276;150.954;2022-07-10T07:07:49;13.20;99.90
44643;DHT22;33930;-34.276;150.954;2022-07-10T07:10:16;13.10;99.90
44643;DHT22;33930;-34.276;150.954;2022-07-10T07:12:44;13.10;99.90
44643;DHT22;33930;-34.276;150.954;2022-07-10T07:15:11;13.00;99.90
44643;DHT22;33930;-34.276;150.954;2022-07-10T07:17:42;12.90;99.90
44643;DHT22;33930;-34.276;150.954;2022-07-10T07:20:32;12.90;99.90
44643;DHT22;33930;-34.276;150.954;2022-07-10T07:23:18;12.90;99.90
44643;DHT22;33930;-34.276;150.954;2022-07-10T07:25:46;12.80;99.90
44643;DHT22;33930;-34.276;150.954;2022-07-10T07:28:15;12.90;99.90
44643;DHT22;33930;-34.276;150.954;2022-07-10T07:30:43;12.80;99.90
44643;DHT22;33930;-34.276;150.954;2022-07-10T07:33:11;12.80;99.90
44643;DHT22;33930;-34.276;150.954;2022-07-10T07:35:39;12.80;99.90
44643;DHT22;33930;-34.276;150.954;2022-07-10T07:38:06;12.70;99.90
44643;DHT22;33930;-34.276;150.954;2022-07-10T07:40:35;12.60;99.90
44643;DHT22;33930;-34.276;150.954;2022-07-10T07:43:04;12.60;99.90
44643;DHT22;33930;-34.276;150.954;2022-07-10T07:45:35;12.70;99.90
44643;DHT22;33930;-34.276;150.954;2022-07-10T07:48:03;12.60;99.90
44643;DHT22;33930;-34.276;150.954;2022-07-10T07:50:33;12.70;99.90
44643;DHT22;33930;-34.276;150.954;2022-07-10T07:53:02;12.70;99.90
44643;DHT22;33930;-34.276;150.954;2022-07-10T07:55:31;12.70;99.90
44643;DHT22;33930;-34.276;150.954;2022-07-10T07:57:59;12.60;99.90
44643;DHT22;33930;-34.276;150.954;2022-07-10T08:00:28;12.60;99.90
44643;DHT22;33930;-34.276;150.954;2022-07-10T08:02:57;12.60;99.90
44643;DHT22;33930;-34.276;150.954;2022-07-10T08:05:25;12.50;99.90
44643;DHT22;33930;-34.276;150.954;2022-07-10T08:07:55;12.50;99.90
44643;DHT22;33930;-34.276;150.954;2022-07-10T08:10:25;12.60;99.90
44643;DHT22;33930;-34.276;150.954;2022-07-10T08:12:53;12.70;99.90
44643;DHT22;33930;-34.276;150.954;2022-07-10T08:15:21;12.60;99.90
44643;DHT22;33930;-34.276;150.954;2022-07-10T08:17:50;12.60;99.90
44643;DHT22;33930;-34.276;150.954;2022-07-10T08:20:18;12.60;99.90
44643;DHT22;33930;-34.276;150.954;2022-07-10T08:22:45;12.60;99.90
44643;DHT22;33930;-34.276;150.954;2022-07-10T08:25:13;12.60;99.90
44643;DHT22;33930;-34.276;150.954;2022-07-10T08:27:41;12.60;99.90
44643;DHT22;33930;-34.276;150.954;2022-07-10T08:30:10;12.60;99.90
44643;DHT22;33930;-34.276;150.954;2022-07-10T08:32:39;12.60;99.90
44643;DHT22;33930;-34.276;150.954;2022-07-10T08:35:08;12.60;99.90
44643;DHT22;33930;-34.276;150.954;2022-07-10T08:37:43;12.50;99.90
44643;DHT22;33930;-34.276;150.954;2022-07-10T08:40:12;12.60;99.90
44643;DHT22;33930;-34.276;150.954;2022-07-10T08:42:41;12.50;99.90
44643;DHT22;33930;-34.276;150.954;2022-07-10T08:45:11;12.60;99.90
44643;DHT22;33930;-34.276;150.954;2022-07-10T08:47:39;12.50;99.90
44643;DHT22;33930;-34.276;150.954;2022-07-10T08:50:16;12.50;99.90
44643;DHT22;33930;-34.276;150.954;2022-07-10T08:53:08;12.60;99.90
44643;DHT22;33930;-34.276;150.954;2022-07-10T08:55:34;12.50;99.90
44643;DHT22;33930;-34.276;150.954;2022-07-10T08:58:03;12.50;99.90
44643;DHT22;33930;-34.276;150.954;2022-07-10T09:00:33;12.40;99.90
44643;DHT22;33930;-34.276;150.954;2022-07-10T09:03:01;12.40;99.90
44643;DHT22;33930;-34.276;150.954;2022-07-10T09:05:29;12.40;99.90
44643;DHT22;33930;-34.276;150.954;2022-07-10T09:07:57;12.40;99.90
44643;DHT22;33930;-34.276;150.954;2022-07-10T09:10:27;12.30;99.90
44643;DHT22;33930;-34.276;150.954;2022-07-10T09:12:59;12.20;99.90
44643;DHT22;33930;-34.276;150.954;2022-07-10T09:15:30;12.30;99.90
44643;DHT22;33930;-34.276;150.954;2022-07-10T09:18:01;12.30;99.90
44643;DHT22;33930;-34.276;150.954;2022-07-10T09:23:19;12.30;99.90
44643;DHT22;33930;-34.276;150.954;2022-07-10T09:25:48;12.30;99.90
44643;DHT22;33930;-34.276;150.954;2022-07-10T09:28:17;12.30;99.90
44643;DHT22;33930;-34.276;150.954;2022-07-10T09:30:47;12.30;99.90
44643;DHT22;33930;-34.276;150.954;2022-07-10T09:33:26;12.40;99.90
44643;DHT22;33930;-34.276;150.954;2022-07-10T09:41:29;12.30;99.90
44643;DHT22;33930;-34.276;150.954;2022-07-10T09:44:04;12.20;99.90
44643;DHT22;33930;-34.276;150.954;2022-07-10T09:46:37;12.20;99.90
44643;DHT22;33930;-34.276;150.954;2022-07-10T09:49:14;12.10;99.90
44643;DHT22;33930;-34.276;150.954;2022-07-10T09:51:44;12.10;99.90
44643;DHT22;33930;-34.276;150.954;2022-07-10T09:54:12;12.10;99.90
44643;DHT22;33930;-34.276;150.954;2022-07-10T09:56:45;12.10;99.90
44643;DHT22;33930;-34.276;150.954;2022-07-10T09:59:18;12.20;99.90
44643;DHT22;33930;-34.276;150.954;2022-07-10T10:01:46;12.20;99.90
44643;DHT22;33930;-34.276;150.954;2022-07-10T10:04:15;12.20;99.90
44643;DHT22;33930;-34.276;150.954;2022-07-10T10:06:45;12.20;99.90
44643;DHT22;33930;-34.276;150.954;2022-07-10T10:11:45;12.10;99.90
44643;DHT22;33930;-34.276;150.954;2022-07-10T10:14:16;12.10;99.90
44643;DHT22;33930;-34.276;150.954;2022-07-10T10:16:46;12.10;99.90
44643;DHT22;33930;-34.276;150.954;2022-07-10T10:19:15;12.10;99.90
44643;DHT22;33930;-34.276;150.954;2022-07-10T10:22:02;12.00;99.90
44643;DHT22;33930;-34.276;150.954;2022-07-10T10:24:32;12.00;99.90
44643;DHT22;33930;-34.276;150.954;2022-07-10T10:27:00;12.00;99.90
44643;DHT22;33930;-34.276;150.954;2022-07-10T10:29:29;12.00;99.90
44643;DHT22;33930;-34.276;150.954;2022-07-10T10:31:57;12.00;99.90
44643;DHT22;33930;-34.276;150.954;2022-07-10T10:34:44;12.00;99.90
44643;DHT22;33930;-34.276;150.954;2022-07-10T10:37:34;12.00;99.90
44643;DHT22;33930;-34.276;150.954;2022-07-10T10:40:05;11.90;99.90
44643;DHT22;33930;-34.276;150.954;2022-07-10T10:42:38;11.80;99.90
44643;DHT22;33930;-34.276;150.954;2022-07-10T10:48:06;11.80;99.90
44643;DHT22;33930;-34.276;150.954;2022-07-10T10:50:39;11.70;99.90
44643;DHT22;33930;-34.276;150.954;2022-07-10T10:53:15;11.60;99.90
44643;DHT22;33930;-34.276;150.954;2022-07-10T10:58:44;11.50;99.90
44643;DHT22;33930;-34.276;150.954;2022-07-10T11:04:13;11.40;99.90
44643;DHT22;33930;-34.276;150.954;2022-07-10T11:06:49;11.40;99.90
44643;DHT22;33930;-34.276;150.954;2022-07-10T11:09:31;11.40;99.90
44643;DHT22;33930;-34.276;150.954;2022-07-10T11:12:06;11.30;99.90
44643;DHT22;33930;-34.276;150.954;2022-07-10T11:14:39;11.30;99.90
44643;DHT22;33930;-34.276;150.954;2022-07-10T11:17:08;11.30;99.90
44643;DHT22;33930;-34.276;150.954;2022-07-10T11:19:38;11.30;99.90
44643;DHT22;33930;-34.276;150.954;2022-07-10T11:28:07;11.30;99.90
44643;DHT22;33930;-34.276;150.954;2022-07-10T11:30:52;11.40;99.90
44643;DHT22;33930;-34.276;150.954;2022-07-10T11:33:21;11.50;99.90
44643;DHT22;33930;-34.276;150.954;2022-07-10T11:35:51;11.50;99.90
44643;DHT22;33930;-34.276;150.954;2022-07-10T11:38:23;11.60;99.90
44643;DHT22;33930;-34.276;150.954;2022-07-10T11:40:51;11.60;99.90
44643;DHT22;33930;-34.276;150.954;2022-07-10T11:43:22;11.60;99.90
44643;DHT22;33930;-34.276;150.954;2022-07-10T11:45:50;11.70;99.90
44643;DHT22;33930;-34.276;150.954;2022-07-10T11:48:21;11.70;99.90
44643;DHT22;33930;-34.276;150.954;2022-07-10T11:50:50;11.70;99.90
44643;DHT22;33930;-34.276;150.954;2022-07-10T11:53:26;11.70;99.90
44643;DHT22;33930;-34.276;150.954;2022-07-10T11:55:55;11.80;99.90
44643;DHT22;33930;-34.276;150.954;2022-07-10T11:58:25;11.80;99.90
44643;DHT22;33930;-34.276;150.954;2022-07-10T12:01:03;11.80;99.90
44643;DHT22;33930;-34.276;150.954;2022-07-10T12:03:38;11.80;99.90
44643;DHT22;33930;-34.276;150.954;2022-07-10T12:06:06;11.80;99.90
44643;DHT22;33930;-34.276;150.954;2022-07-10T12:08:45;11.80;99.90
44643;DHT22;33930;-34.276;150.954;2022-07-10T12:11:17;11.70;99.90
44643;DHT22;33930;-34.276;150.954;2022-07-10T12:13:46;11.70;99.90
44643;DHT22;33930;-34.276;150.954;2022-07-10T12:16:14;11.70;99.90
44643;DHT22;33930;-34.276;150.954;2022-07-10T12:18:42;11.50;99.90
44643;DHT22;33930;-34.276;150.954;2022-07-10T12:21:11;11.50;99.90
44643;DHT22;33930;-34.276;150.954;2022-07-10T12:23:39;11.40;99.90
44643;DHT22;33930;-34.276;150.954;2022-07-10T12:26:14;11.40;99.90
44643;DHT22;33930;-34.276;150.954;2022-07-10T12:28:54;11.30;99.90
44643;DHT22;33930;-34.276;150.954;2022-07-10T12:31:29;11.30;99.90
44643;DHT22;33930;-34.276;150.954;2022-07-10T12:34:03;11.30;99.90
44643;DHT22;33930;-34.276;150.954;2022-07-10T12:36:51;11.30;99.90
44643;DHT22;33930;-34.276;150.954;2022-07-10T12:39:24;11.30;99.90
44643;DHT22;33930;-34.276;150.954;2022-07-10T12:42:07;11.40;99.90
44643;DHT22;33930;-34.276;150.954;2022-07-10T12:44:41;11.40;99.90
44643;DHT22;33930;-34.276;150.954;2022-07-10T12:47:11;11.40;99.90
44643;DHT22;33930;-34.276;150.954;2022-07-10T12:50:08;11.40;99.90
44643;DHT22;33930;-34.276;150.954;2022-07-10T12:52:36;11.50;99.90
44643;DHT22;33930;-34.276;150.954;2022-07-10T12:57:52;11.60;99.90
44643;DHT22;33930;-34.276;150.954;2022-07-10T13:00:29;11.70;99.90
44643;DHT22;33930;-34.276;150.954;2022-07-10T13:03:07;11.70;99.90
44643;DHT22;33930;-34.276;150.954;2022-07-10T13:05:42;11.70;99.90
44643;DHT22;33930;-34.276;150.954;2022-07-10T13:10:55;11.80;99.90
44643;DHT22;33930;-34.276;150.954;2022-07-10T13:13:24;11.80;99.90
44643;DHT22;33930;-34.276;150.954;2022-07-10T13:15:52;11.90;99.90
44643;DHT22;33930;-34.276;150.954;2022-07-10T13:18:27;11.80;99.90
44643;DHT22;33930;-34.276;150.954;2022-07-10T13:20:57;11.80;99.90
44643;DHT22;33930;-34.276;150.954;2022-07-10T13:23:25;11.80;99.90
44643;DHT22;33930;-34.276;150.954;2022-07-10T13:25:54;11.90;99.90
44643;DHT22;33930;-34.276;150.954;2022-07-10T13:28:21;11.90;99.90
44643;DHT22;33930;-34.276;150.954;2022-07-10T13:30:49;11.90;99.90
44643;DHT22;33930;-34.276;150.954;2022-07-10T13:33:16;11.90;99.90
44643;DHT22;33930;-34.276;150.954;2022-07-10T13:35:44;11.90;99.90
44643;DHT22;33930;-34.276;150.954;2022-07-10T13:38:11;11.80;99.90
44643;DHT22;33930;-34.276;150.954;2022-07-10T13:40:39;11.80;99.90
44643;DHT22;33930;-34.276;150.954;2022-07-10T13:43:07;11.80;99.90
44643;DHT22;33930;-34.276;150.954;2022-07-10T13:45:36;11.80;99.90
44643;DHT22;33930;-34.276;150.954;2022-07-10T13:48:10;11.80;99.90
44643;DHT22;33930;-34.276;150.954;2022-07-10T13:50:45;11.80;99.90
44643;DHT22;33930;-34.276;150.954;2022-07-10T13:53:17;11.90;99.90
44643;DHT22;33930;-34.276;150.954;2022-07-10T13:55:44;11.90;99.90
44643;DHT22;33930;-34.276;150.954;2022-07-10T13:58:13;11.90;99.90
44643;DHT22;33930;-34.276;150.954;2022-07-10T14:00:40;11.90;99.90
44643;DHT22;33930;-34.276;150.954;2022-07-10T14:03:08;11.90;99.90
44643;DHT22;33930;-34.276;150.954;2022-07-10T14:05:36;11.90;99.90
44643;DHT22;33930;-34.276;150.954;2022-07-10T14:08:03;11.90;99.90
44643;DHT22;33930;-34.276;150.954;2022-07-10T14:10:31;11.90;99.90
44643;DHT22;33930;-34.276;150.954;2022-07-10T14:12:58;11.80;99.90
44643;DHT22;33930;-34.276;150.954;2022-07-10T14:15:26;11.80;99.90
44643;DHT22;33930;-34.276;150.954;2022-07-10T14:17:53;11.80;99.90
44643;DHT22;33930;-34.276;150.954;2022-07-10T14:20:21;11.80;99.90
44643;DHT22;33930;-34.276;150.954;2022-07-10T14:22:48;11.80;99.90
44643;DHT22;33930;-34.276;150.954;2022-07-10T14:25:16;11.70;99.90
44643;DHT22;33930;-34.276;150.954;2022-07-10T14:27:44;11.60;99.90
44643;DHT22;33930;-34.276;150.954;2022-07-10T14:30:11;11.60;99.90
44643;DHT22;33930;-34.276;150.954;2022-07-10T14:32:38;11.60;99.90
44643;DHT22;33930;-34.276;150.954;2022-07-10T14:35:06;11.60;99.90
44643;DHT22;33930;-34.276;150.954;2022-07-10T14:37:35;11.70;99.90
44643;DHT22;33930;-34.276;150.954;2022-07-10T14:40:02;11.60;99.90
44643;DHT22;33930;-34.276;150.954;2022-07-10T14:42:30;11.70;99.90
44643;DHT22;33930;-34.276;150.954;2022-07-10T14:44:57;11.70;99.90
44643;DHT22;33930;-34.276;150.954;2022-07-10T14:47:24;11.70;99.90
44643;DHT22;33930;-34.276;150.954;2022-07-10T14:49:55;11.70;99.90
44643;DHT22;33930;-34.276;150.954;2022-07-10T14:52:22;11.70;99.90
44643;DHT22;33930;-34.276;150.954;2022-07-10T14:54:52;11.70;99.90
44643;DHT22;33930;-34.276;150.954;2022-07-10T14:57:19;11.70;99.90
44643;DHT22;33930;-34.276;150.954;2022-07-10T14:59:46;11.80;99.90
44643;DHT22;33930;-34.276;150.954;2022-07-10T15:02:13;11.70;99.90
44643;DHT22;33930;-34.276;150.954;2022-07-10T15:04:41;11.70;99.90
44643;DHT22;33930;-34.276;150.954;2022-07-10T15:07:08;11.70;99.90
44643;DHT22;33930;-34.276;150.954;2022-07-10T15:09:36;11.80;99.90
44643;DHT22;33930;-34.276;150.954;2022-07-10T15:12:04;11.70;99.90
44643;DHT22;33930;-34.276;150.954;2022-07-10T15:14:31;11.80;99.90
44643;DHT22;33930;-34.276;150.954;2022-07-10T15:16:58;11.90;99.90
44643;DHT22;33930;-34.276;150.954;2022-07-10T15:19:26;11.90;99.90
44643;DHT22;33930;-34.276;150.954;2022-07-10T15:21:53;11.90;99.90
44643;DHT22;33930;-34.276;150.954;2022-07-10T15:24:21;11.90;99.90
44643;DHT22;33930;-34.276;150.954;2022-07-10T15:26:48;11.80;99.90
44643;DHT22;33930;-34.276;150.954;2022-07-10T15:29:17;11.70;99.90
44643;DHT22;33930;-34.276;150.954;2022-07-10T15:31:47;11.70;99.90